sensor_id;sensor_type;location;lat;lon;timestamp;pressure;altitude;pressure_sealevel;temperature;humidity
13836;BME280;6988;52.614;13.500;2023-11-19T00:03:13;54914.59;;;-143.77;83.37
13836;BME280;6988;52.614;13.500;2023-11-19T00:08:04;54916.63;;;-143.77;83.89
13836;BME280;6988;52.614;13.500;2023-11-19T00:12:57;54881.75;;;-143.77;83.32
13836;BME280;6988;52.614;13.500;2023-11-19T00:17:49;54912.53;;;-143.77;83.19
13836;BME280;6988;52.614;13.500;2023-11-19T00:22:43;54935.09;;;-143.77;83.12
13836;BME280;6988;52.614;13.500;2023-11-19T00:27:35;54926.91;;;-143.77;83.49
13836;BME280;6988;52.614;13.500;2023-11-19T00:32:28;54933.06;;;-143.77;83.46
13836;BME280;6988;52.614;13.500;2023-11-19T00:37:21;54885.84;;;-143.77;83.00
13836;BME280;6988;52.614;13.500;2023-11-19T00:42:14;54914.59;;;-143.77;82.58
13836;BME280;6988;52.614;13.500;2023-11-19T00:47:06;54894.06;;;-143.77;82.49
13836;BME280;6988;52.614;13.500;2023-11-19T00:51:57;54922.78;;;-143.77;82.05
13836;BME280;6988;52.614;13.500;2023-11-19T00:56:50;54912.53;;;-143.77;82.37
13836;BME280;6988;52.614;13.500;2023-11-19T01:01:44;54914.59;;;-143.77;82.32
13836;BME280;6988;52.614;13.500;2023-11-19T01:06:37;54902.28;;;-143.77;81.99
13836;BME280;6988;52.614;13.500;2023-11-19T01:11:29;54896.13;;;-143.77;81.66
13836;BME280;6988;52.614;13.500;2023-11-19T01:16:21;54889.97;;;-143.77;81.80
13836;BME280;6988;52.614;13.500;2023-11-19T01:21:15;54937.16;;;-143.77;82.28
13836;BME280;6988;52.614;13.500;2023-11-19T01:26:08;54914.59;;;-143.77;81.99
13836;BME280;6988;52.614;13.500;2023-11-19T01:31:03;54900.22;;;-143.77;81.94
13836;BME280;6988;52.614;13.500;2023-11-19T01:35:56;54959.72;;;-143.77;82.08
13836;BME280;6988;52.614;13.500;2023-11-19T01:40:55;54881.75;;;-143.77;81.25
13836;BME280;6988;52.614;13.500;2023-11-19T01:45:47;54935.09;;;-143.77;81.64
13836;BME280;6988;52.614;13.500;2023-11-19T01:50:41;54904.31;;;-143.77;80.90
13836;BME280;6988;52.614;13.500;2023-11-19T01:55:36;54865.34;;;-143.77;80.67
13836;BME280;6988;52.614;13.500;2023-11-19T02:00:30;54885.84;;;-143.77;80.54
13836;BME280;6988;52.614;13.500;2023-11-19T02:07:26;54887.91;;;-143.77;80.54
13836;BME280;6988;52.614;13.500;2023-11-19T02:11:35;54875.59;;;-143.77;80.00
13836;BME280;6988;52.614;13.500;2023-11-19T02:16:28;54906.38;;;-143.77;80.15
13836;BME280;6988;52.614;13.500;2023-11-19T02:21:20;54894.06;;;-143.77;81.44
13836;BME280;6988;52.614;13.500;2023-11-19T02:26:22;54906.38;;;-143.77;81.91
13836;BME280;6988;52.614;13.500;2023-11-19T02:31:17;54885.84;;;-143.77;81.80
13836;BME280;6988;52.614;13.500;2023-11-19T02:36:20;54906.38;;;-143.77;81.61
13836;BME280;6988;52.614;13.500;2023-11-19T02:41:14;54912.53;;;-143.77;81.45
13836;BME280;6988;52.614;13.500;2023-11-19T02:46:06;54885.84;;;-143.77;81.59
13836;BME280;6988;52.614;13.500;2023-11-19T02:51:01;54896.13;;;-143.77;81.62
13836;BME280;6988;52.614;13.500;2023-11-19T02:55:54;54853.03;;;-143.77;81.79
13836;BME280;6988;52.614;13.500;2023-11-19T03:00:51;54873.53;;;-143.77;81.93
13836;BME280;6988;52.614;13.500;2023-11-19T03:05:47;54885.84;;;-143.77;81.29
13836;BME280;6988;52.614;13.500;2023-11-19T03:10:41;54885.84;;;-143.77;81.59
13836;BME280;6988;52.614;13.500;2023-11-19T03:15:33;54881.75;;;-143.77;81.36
13836;BME280;6988;52.614;13.500;2023-11-19T03:20:25;54885.84;;;-143.77;80.96
13836;BME280;6988;52.614;13.500;2023-11-19T03:25:18;54879.69;;;-143.77;81.73
13836;BME280;6988;52.614;13.500;2023-11-19T03:30:12;54871.50;;;-143.77;81.21
13836;BME280;6988;52.614;13.500;2023-11-19T03:35:05;54885.84;;;-143.77;81.04
13836;BME280;6988;52.614;13.500;2023-11-19T03:40:00;54861.22;;;-143.77;82.36
13836;BME280;6988;52.614;13.500;2023-11-19T03:44:52;54881.75;;;-143.77;82.71
13836;BME280;6988;52.614;13.500;2023-11-19T03:49:48;54865.34;;;-143.77;83.76
13836;BME280;6988;52.614;13.500;2023-11-19T03:54:40;54908.44;;;-143.77;84.27
13836;BME280;6988;52.614;13.500;2023-11-19T03:59:32;54877.66;;;-143.77;84.75
13836;BME280;6988;52.614;13.500;2023-11-19T04:04:24;54889.97;;;-143.77;85.09
13836;BME280;6988;52.614;13.500;2023-11-19T04:09:17;54910.47;;;-143.77;85.70
13836;BME280;6988;52.614;13.500;2023-11-19T04:14:09;54896.13;;;-143.77;85.46
13836;BME280;6988;52.614;13.500;2023-11-19T04:19:01;54914.59;;;-143.77;85.88
13836;BME280;6988;52.614;13.500;2023-11-19T04:23:53;54879.69;;;-143.77;86.59
13836;BME280;6988;52.614;13.500;2023-11-19T04:28:47;54900.22;;;-143.77;86.78
13836;BME280;6988;52.614;13.500;2023-11-19T04:33:40;54898.16;;;-143.77;87.19
13836;BME280;6988;52.614;13.500;2023-11-19T04:38:31;54896.13;;;-143.77;86.77
13836;BME280;6988;52.614;13.500;2023-11-19T04:43:23;54867.38;;;-143.77;86.85
13836;BME280;6988;52.614;13.500;2023-11-19T04:48:16;54861.22;;;-143.77;86.83
13836;BME280;6988;52.614;13.500;2023-11-19T04:53:08;54889.97;;;-143.77;87.18
13836;BME280;6988;52.614;13.500;2023-11-19T04:58:00;54914.59;;;-143.77;87.20
13836;BME280;6988;52.614;13.500;2023-11-19T05:02:52;54885.84;;;-143.77;87.59
13836;BME280;6988;52.614;13.500;2023-11-19T05:07:45;54885.84;;;-143.77;87.94
13836;BME280;6988;52.614;13.500;2023-11-19T05:12:37;54908.44;;;-143.77;88.39
13836;BME280;6988;52.614;13.500;2023-11-19T05:17:29;54894.06;;;-143.77;88.56
13836;BME280;6988;52.614;13.500;2023-11-19T05:22:21;54928.94;;;-143.77;89.05
13836;BME280;6988;52.614;13.500;2023-11-19T05:27:14;54902.28;;;-143.77;89.41
13836;BME280;6988;52.614;13.500;2023-11-19T05:32:06;54861.22;;;-143.77;89.30
13836;BME280;6988;52.614;13.500;2023-11-19T05:36:58;54910.47;;;-143.77;90.37
13836;BME280;6988;52.614;13.500;2023-11-19T05:41:50;54896.13;;;-143.77;90.05
13836;BME280;6988;52.614;13.500;2023-11-19T05:46:43;54877.66;;;-143.77;91.34
13836;BME280;6988;52.614;13.500;2023-11-19T05:51:36;54850.97;;;-143.77;91.52
13836;BME280;6988;52.614;13.500;2023-11-19T05:56:29;54865.34;;;-143.77;92.13
13836;BME280;6988;52.614;13.500;2023-11-19T06:01:23;54838.66;;;-143.77;92.06
13836;BME280;6988;52.614;13.500;2023-11-19T06:06:16;54863.28;;;-143.77;92.26
13836;BME280;6988;52.614;13.500;2023-11-19T06:11:09;54883.81;;;-143.77;91.80
13836;BME280;6988;52.614;13.500;2023-11-19T06:16:06;54894.06;;;-143.77;92.27
13836;BME280;6988;52.614;13.500;2023-11-19T06:20:58;54920.75;;;-143.77;92.19
13836;BME280;6988;52.614;13.500;2023-11-19T06:25:51;54848.91;;;-143.77;92.38
13836;BME280;6988;52.614;13.500;2023-11-19T06:30:42;54857.13;;;-143.77;92.64
13836;BME280;6988;52.614;13.500;2023-11-19T06:35:34;54855.06;;;-143.77;92.37
13836;BME280;6988;52.614;13.500;2023-11-19T06:40:27;54877.66;;;-143.77;91.75
13836;BME280;6988;52.614;13.500;2023-11-19T06:45:21;54832.50;;;-143.77;91.92
13836;BME280;6988;52.614;13.500;2023-11-19T06:50:13;54883.81;;;-143.77;92.01
13836;BME280;6988;52.614;13.500;2023-11-19T06:55:06;54840.72;;;-143.77;92.26
13836;BME280;6988;52.614;13.500;2023-11-19T06:59:58;54869.44;;;-143.77;92.69
13836;BME280;6988;52.614;13.500;2023-11-19T07:04:51;54887.91;;;-143.77;92.89
13836;BME280;6988;52.614;13.500;2023-11-19T07:09:43;54853.03;;;-143.77;93.29
13836;BME280;6988;52.614;13.500;2023-11-19T07:14:35;54857.13;;;-143.77;93.51
13836;BME280;6988;52.614;13.500;2023-11-19T07:19:26;54865.34;;;-143.77;93.74
13836;BME280;6988;52.614;13.500;2023-11-19T07:24:20;54896.13;;;-143.77;93.82
13836;BME280;6988;52.614;13.500;2023-11-19T07:29:12;54879.69;;;-143.77;93.94
13836;BME280;6988;52.614;13.500;2023-11-19T07:34:04;54865.34;;;-143.77;93.83
13836;BME280;6988;52.614;13.500;2023-11-19T07:38:56;54892.00;;;-143.77;94.25
13836;BME280;6988;52.614;13.500;2023-11-19T07:43:50;54816.09;;;-143.77;94.12
13836;BME280;6988;52.614;13.500;2023-11-19T07:48:43;54848.91;;;-143.77;94.40
13836;BME280;6988;52.614;13.500;2023-11-19T07:53:34;54840.72;;;-143.77;94.39
13836;BME280;6988;52.614;13.500;2023-11-19T07:58:28;54844.81;;;-143.77;94.87
13836;BME280;6988;52.614;13.500;2023-11-19T08:03:22;54844.81;;;-143.77;94.59
13836;BME280;6988;52.614;13.500;2023-11-19T08:08:14;54881.75;;;-143.77;94.47
13836;BME280;6988;52.614;13.500;2023-11-19T08:13:05;54844.81;;;-143.77;94.69
13836;BME280;6988;52.614;13.500;2023-11-19T08:17:57;54885.84;;;-143.77;94.93
13836;BME280;6988;52.614;13.500;2023-11-19T08:22:51;54840.72;;;-143.77;94.98
13836;BME280;6988;52.614;13.500;2023-11-19T08:27:42;54834.56;;;-143.77;94.56
13836;BME280;6988;52.614;13.500;2023-11-19T08:32:35;54842.75;;;-143.77;94.86
13836;BME280;6988;52.614;13.500;2023-11-19T08:37:27;54822.25;;;-143.77;94.41
13836;BME280;6988;52.614;13.500;2023-11-19T08:42:20;54844.81;;;-143.77;94.91
13836;BME280;6988;52.614;13.500;2023-11-19T08:47:13;54832.50;;;-143.77;95.28
13836;BME280;6988;52.614;13.500;2023-11-19T08:52:06;54816.09;;;-143.77;95.09
13836;BME280;6988;52.614;13.500;2023-11-19T08:56:58;54818.13;;;-143.77;95.17
13836;BME280;6988;52.614;13.500;2023-11-19T09:01:52;54807.88;;;-143.77;95.02
13836;BME280;6988;52.614;13.500;2023-11-19T09:06:44;54816.09;;;-143.77;95.05
13836;BME280;6988;52.614;13.500;2023-11-19T09:11:36;54828.41;;;-143.77;95.48
13836;BME280;6988;52.614;13.500;2023-11-19T09:16:28;54760.69;;;-143.77;95.28
13836;BME280;6988;52.614;13.500;2023-11-19T09:21:24;54805.81;;;-143.77;94.86
13836;BME280;6988;52.614;13.500;2023-11-19T09:26:15;54756.56;;;-143.77;95.11
13836;BME280;6988;52.614;13.500;2023-11-19T09:31:13;54744.25;;;-143.77;95.02
13836;BME280;6988;52.614;13.500;2023-11-19T09:36:09;54760.69;;;-143.77;94.92
13836;BME280;6988;52.614;13.500;2023-11-19T09:41:04;54760.69;;;-143.77;95.05
13836;BME280;6988;52.614;13.500;2023-11-19T09:46:04;54773.00;;;-143.77;95.22
13836;BME280;6988;52.614;13.500;2023-11-19T09:50:57;54770.94;;;-143.77;95.32
13836;BME280;6988;52.614;13.500;2023-11-19T09:55:50;54725.78;;;-143.77;95.24
13836;BME280;6988;52.614;13.500;2023-11-19T10:00:43;54746.31;;;-143.77;95.28
13836;BME280;6988;52.614;13.500;2023-11-19T10:05:35;54711.44;;;-143.77;95.13
13836;BME280;6988;52.614;13.500;2023-11-19T10:10:28;54674.50;;;-143.77;95.13
13836;BME280;6988;52.614;13.500;2023-11-19T10:15:23;54672.44;;;-143.77;95.11
13836;BME280;6988;52.614;13.500;2023-11-19T10:20:18;54705.28;;;-143.77;94.90
13836;BME280;6988;52.614;13.500;2023-11-19T10:25:24;54621.13;;;-143.77;95.16
13836;BME280;6988;52.614;13.500;2023-11-19T10:30:18;54660.13;;;-143.77;95.12
13836;BME280;6988;52.614;13.500;2023-11-19T10:35:10;54668.34;;;-143.77;94.42
13836;BME280;6988;52.614;13.500;2023-11-19T10:40:10;54672.44;;;-143.77;94.16
13836;BME280;6988;52.614;13.500;2023-11-19T10:45:02;54664.22;;;-143.77;93.61
13836;BME280;6988;52.614;13.500;2023-11-19T10:49:54;54614.97;;;-143.77;93.37
13836;BME280;6988;52.614;13.500;2023-11-19T10:54:50;54641.66;;;-143.77;92.96
13836;BME280;6988;52.614;13.500;2023-11-19T10:59:46;54645.75;;;-143.77;92.70
13836;BME280;6988;52.614;13.500;2023-11-19T11:04:40;54631.41;;;-143.77;92.36
13836;BME280;6988;52.614;13.500;2023-11-19T11:09:35;54598.56;;;-143.77;92.34
13836;BME280;6988;52.614;13.500;2023-11-19T11:14:28;54614.97;;;-143.77;91.78
13836;BME280;6988;52.614;13.500;2023-11-19T11:19:22;54596.50;;;-143.77;91.91
13836;BME280;6988;52.614;13.500;2023-11-19T11:24:43;54602.66;;;-143.77;91.50
13836;BME280;6988;52.614;13.500;2023-11-19T11:29:47;54594.47;;;-143.77;91.09
13836;BME280;6988;52.614;13.500;2023-11-19T11:35:08;54561.63;;;-143.77;89.95
13836;BME280;6988;52.614;13.500;2023-11-19T11:40:04;54565.72;;;-143.77;89.21
13836;BME280;6988;52.614;13.500;2023-11-19T11:45:03;54571.88;;;-143.77;86.97
13836;BME280;6988;52.614;13.500;2023-11-19T11:50:07;54512.38;;;-143.77;85.20
13836;BME280;6988;52.614;13.500;2023-11-19T11:55:04;54528.78;;;-143.77;84.24
13836;BME280;6988;52.614;13.500;2023-11-19T12:00:02;54528.78;;;-143.77;83.42
13836;BME280;6988;52.614;13.500;2023-11-19T12:04:56;54567.78;;;-143.77;82.80
13836;BME280;6988;52.614;13.500;2023-11-19T12:09:52;54545.22;;;-143.77;82.73
13836;BME280;6988;52.614;13.500;2023-11-19T12:15:05;54578.03;;;-143.77;83.03
13836;BME280;6988;52.614;13.500;2023-11-19T12:19:58;54508.28;;;-143.77;82.84
13836;BME280;6988;52.614;13.500;2023-11-19T12:24:54;54526.75;;;-143.77;82.69
13836;BME280;6988;52.614;13.500;2023-11-19T12:29:46;54553.41;;;-143.77;82.84
13836;BME280;6988;52.614;13.500;2023-11-19T12:34:38;54522.63;;;-143.77;81.56
13836;BME280;6988;52.614;13.500;2023-11-19T12:39:30;54592.41;;;-143.77;82.18
13836;BME280;6988;52.614;13.500;2023-11-19T12:44:23;54590.34;;;-143.77;82.82
13836;BME280;6988;52.614;13.500;2023-11-19T12:49:15;54567.78;;;-143.77;83.54
13836;BME280;6988;52.614;13.500;2023-11-19T12:54:07;54586.25;;;-143.77;83.60
13836;BME280;6988;52.614;13.500;2023-11-19T12:59:10;54565.72;;;-143.77;83.88
13836;BME280;6988;52.614;13.500;2023-11-19T13:04:17;54602.66;;;-143.77;83.21
13836;BME280;6988;52.614;13.500;2023-11-19T13:09:22;54559.56;;;-143.77;82.94
13836;BME280;6988;52.614;13.500;2023-11-19T13:14:15;54545.22;;;-143.77;82.76
13836;BME280;6988;52.614;13.500;2023-11-19T13:19:06;54578.03;;;-143.77;82.55
13836;BME280;6988;52.614;13.500;2023-11-19T13:24:00;54561.63;;;-143.77;82.10
13836;BME280;6988;52.614;13.500;2023-11-19T13:28:52;54580.09;;;-143.77;82.18
13836;BME280;6988;52.614;13.500;2023-11-19T13:33:44;54532.91;;;-143.77;81.96
13836;BME280;6988;52.614;13.500;2023-11-19T13:38:36;54549.31;;;-143.77;81.08
13836;BME280;6988;52.614;13.500;2023-11-19T13:43:30;54541.09;;;-143.77;80.26
13836;BME280;6988;52.614;13.500;2023-11-19T13:48:22;54547.25;;;-143.77;79.44
13836;BME280;6988;52.614;13.500;2023-11-19T13:53:17;54569.84;;;-143.77;79.44
13836;BME280;6988;52.614;13.500;2023-11-19T13:58:09;54567.78;;;-143.77;79.03
13836;BME280;6988;52.614;13.500;2023-11-19T14:03:02;54619.09;;;-143.77;79.21
13836;BME280;6988;52.614;13.500;2023-11-19T14:07:54;54586.25;;;-143.77;79.56
13836;BME280;6988;52.614;13.500;2023-11-19T14:12:47;54596.50;;;-143.77;79.86
13836;BME280;6988;52.614;13.500;2023-11-19T14:17:40;54594.47;;;-143.77;79.91
13836;BME280;6988;52.614;13.500;2023-11-19T14:22:33;54614.97;;;-143.77;80.61
13836;BME280;6988;52.614;13.500;2023-11-19T14:27:25;54573.94;;;-143.77;81.18
13836;BME280;6988;52.614;13.500;2023-11-19T14:32:20;54625.25;;;-143.77;80.87
13836;BME280;6988;52.614;13.500;2023-11-19T14:37:11;54606.78;;;-143.77;81.13
13836;BME280;6988;52.614;13.500;2023-11-19T14:42:05;54596.50;;;-143.77;81.27
13836;BME280;6988;52.614;13.500;2023-11-19T14:46:57;54590.34;;;-143.77;81.22
13836;BME280;6988;52.614;13.500;2023-11-19T14:51:49;54561.63;;;-143.77;81.22
13836;BME280;6988;52.614;13.500;2023-11-19T14:56:41;54623.19;;;-143.77;81.10
13836;BME280;6988;52.614;13.500;2023-11-19T15:01:34;54602.66;;;-143.77;81.20
13836;BME280;6988;52.614;13.500;2023-11-19T15:06:26;54623.19;;;-143.77;81.00
13836;BME280;6988;52.614;13.500;2023-11-19T15:11:18;54612.94;;;-143.77;80.67
13836;BME280;6988;52.614;13.500;2023-11-19T15:16:10;54637.56;;;-143.77;80.54
13836;BME280;6988;52.614;13.500;2023-11-19T15:21:06;54596.50;;;-143.77;80.52
13836;BME280;6988;52.614;13.500;2023-11-19T15:25:58;54635.50;;;-143.77;80.78
13836;BME280;6988;52.614;13.500;2023-11-19T15:30:50;54627.28;;;-143.77;80.51
13836;BME280;6988;52.614;13.500;2023-11-19T15:35:42;54617.03;;;-143.77;80.57
13836;BME280;6988;52.614;13.500;2023-11-19T15:40:35;54614.97;;;-143.77;81.02
13836;BME280;6988;52.614;13.500;2023-11-19T15:45:27;54635.50;;;-143.77;81.22
13836;BME280;6988;52.614;13.500;2023-11-19T15:50:26;54604.72;;;-143.77;81.16
13836;BME280;6988;52.614;13.500;2023-11-19T15:55:19;54635.50;;;-143.77;81.66
13836;BME280;6988;52.614;13.500;2023-11-19T16:00:15;54631.41;;;-143.77;81.36
13836;BME280;6988;52.614;13.500;2023-11-19T16:05:07;54649.88;;;-143.77;81.00
13836;BME280;6988;52.614;13.500;2023-11-19T16:10:00;54608.81;;;-143.77;81.40
13836;BME280;6988;52.614;13.500;2023-11-19T16:14:54;54606.78;;;-143.77;81.26
13836;BME280;6988;52.614;13.500;2023-11-19T16:19:47;54631.41;;;-143.77;81.38
13836;BME280;6988;52.614;13.500;2023-11-19T16:24:39;54656.03;;;-143.77;81.30
13836;BME280;6988;52.614;13.500;2023-11-19T16:29:32;54623.19;;;-143.77;81.23
13836;BME280;6988;52.614;13.500;2023-11-19T16:34:24;54633.44;;;-143.77;81.66
13836;BME280;6988;52.614;13.500;2023-11-19T16:39:17;54617.03;;;-143.77;81.90
13836;BME280;6988;52.614;13.500;2023-11-19T16:44:09;54623.19;;;-143.77;81.95
13836;BME280;6988;52.614;13.500;2023-11-19T16:49:01;54660.13;;;-143.77;82.64
13836;BME280;6988;52.614;13.500;2023-11-19T16:53:52;54656.03;;;-143.77;83.04
13836;BME280;6988;52.614;13.500;2023-11-19T16:58:46;54645.75;;;-143.77;83.79
13836;BME280;6988;52.614;13.500;2023-11-19T17:03:38;54664.22;;;-143.77;83.99
13836;BME280;6988;52.614;13.500;2023-11-19T17:08:30;54627.28;;;-143.77;83.93
13836;BME280;6988;52.614;13.500;2023-11-19T17:13:23;54641.66;;;-143.77;83.51
13836;BME280;6988;52.614;13.500;2023-11-19T17:18:17;54627.28;;;-143.77;82.95
13836;BME280;6988;52.614;13.500;2023-11-19T17:23:09;54651.91;;;-143.77;82.74
13836;BME280;6988;52.614;13.500;2023-11-19T17:28:01;54629.34;;;-143.77;82.95
13836;BME280;6988;52.614;13.500;2023-11-19T17:32:57;54637.56;;;-143.77;83.64
13836;BME280;6988;52.614;13.500;2023-11-19T17:37:50;54653.97;;;-143.77;83.98
13836;BME280;6988;52.614;13.500;2023-11-19T17:42:42;54651.91;;;-143.77;84.88
13836;BME280;6988;52.614;13.500;2023-11-19T17:47:34;54651.91;;;-143.77;85.65
13836;BME280;6988;52.614;13.500;2023-11-19T17:52:27;54643.72;;;-143.77;86.19
13836;BME280;6988;52.614;13.500;2023-11-19T17:57:20;54680.66;;;-143.77;86.79
13836;BME280;6988;52.614;13.500;2023-11-19T18:02:12;54653.97;;;-143.77;87.00
13836;BME280;6988;52.614;13.500;2023-11-19T18:07:04;54651.91;;;-143.77;87.14
13836;BME280;6988;52.614;13.500;2023-11-19T18:11:56;54651.91;;;-143.77;87.00
13836;BME280;6988;52.614;13.500;2023-11-19T18:16:50;54676.53;;;-143.77;86.47
13836;BME280;6988;52.614;13.500;2023-11-19T18:21:42;54688.84;;;-143.77;86.33
13836;BME280;6988;52.614;13.500;2023-11-19T18:26:35;54678.59;;;-143.77;85.90
13836;BME280;6988;52.614;13.500;2023-11-19T18:31:27;54664.22;;;-143.77;86.07
13836;BME280;6988;52.614;13.500;2023-11-19T18:36:21;54703.22;;;-143.77;86.23
13836;BME280;6988;52.614;13.500;2023-11-19T18:41:13;54676.53;;;-143.77;86.56
13836;BME280;6988;52.614;13.500;2023-11-19T18:46:05;54660.13;;;-143.77;87.11
13836;BME280;6988;52.614;13.500;2023-11-19T18:50:56;54688.84;;;-143.77;87.14
13836;BME280;6988;52.614;13.500;2023-11-19T18:55:50;54692.97;;;-143.77;87.71
13836;BME280;6988;52.614;13.500;2023-11-19T19:00:42;54684.75;;;-143.77;87.65
13836;BME280;6988;52.614;13.500;2023-11-19T19:05:34;54684.75;;;-143.77;87.56
13836;BME280;6988;52.614;13.500;2023-11-19T19:10:26;54711.44;;;-143.77;87.81
13836;BME280;6988;52.614;13.500;2023-11-19T19:15:19;54666.28;;;-143.77;87.80
13836;BME280;6988;52.614;13.500;2023-11-19T19:20:11;54699.13;;;-143.77;88.13
13836;BME280;6988;52.614;13.500;2023-11-19T19:25:04;54729.91;;;-143.77;88.23
13836;BME280;6988;52.614;13.500;2023-11-19T19:29:56;54686.81;;;-143.77;88.10
13836;BME280;6988;52.614;13.500;2023-11-19T19:34:49;54701.16;;;-143.77;87.88
13836;BME280;6988;52.614;13.500;2023-11-19T19:39:41;54676.53;;;-143.77;87.45
13836;BME280;6988;52.614;13.500;2023-11-19T19:44:33;54676.53;;;-143.77;87.51
13836;BME280;6988;52.614;13.500;2023-11-19T19:49:26;54680.66;;;-143.77;87.15
13836;BME280;6988;52.614;13.500;2023-11-19T19:54:21;54701.16;;;-143.77;87.03
13836;BME280;6988;52.614;13.500;2023-11-19T19:59:14;54688.84;;;-143.77;87.14
13836;BME280;6988;52.614;13.500;2023-11-19T20:04:07;54664.22;;;-143.77;86.95
13836;BME280;6988;52.614;13.500;2023-11-19T20:08:59;54676.53;;;-143.77;87.12
13836;BME280;6988;52.614;13.500;2023-11-19T20:13:52;54645.75;;;-143.77;87.23
13836;BME280;6988;52.614;13.500;2023-11-19T20:18:45;54639.59;;;-143.77;87.51
13836;BME280;6988;52.614;13.500;2023-11-19T20:23:37;54676.53;;;-143.77;86.96
13836;BME280;6988;52.614;13.500;2023-11-19T20:28:29;54680.66;;;-143.77;87.14
13836;BME280;6988;52.614;13.500;2023-11-19T20:33:22;54651.91;;;-143.77;87.16
13836;BME280;6988;52.614;13.500;2023-11-19T20:38:15;54672.44;;;-143.77;87.63
13836;BME280;6988;52.614;13.500;2023-11-19T20:43:07;54690.91;;;-143.77;87.69
13836;BME280;6988;52.614;13.500;2023-11-19T20:47:59;54684.75;;;-143.77;87.96
13836;BME280;6988;52.614;13.500;2023-11-19T20:52:52;54705.28;;;-143.77;88.02
13836;BME280;6988;52.614;13.500;2023-11-19T20:57:44;54649.88;;;-143.77;88.32
13836;BME280;6988;52.614;13.500;2023-11-19T21:02:36;54656.03;;;-143.77;88.48
13836;BME280;6988;52.614;13.500;2023-11-19T21:07:27;54653.97;;;-143.77;88.24
13836;BME280;6988;52.614;13.500;2023-11-19T21:12:21;54664.22;;;-143.77;88.34
13836;BME280;6988;52.614;13.500;2023-11-19T21:17:12;54656.03;;;-143.77;88.16
13836;BME280;6988;52.614;13.500;2023-11-19T21:22:06;54666.28;;;-143.77;88.34
13836;BME280;6988;52.614;13.500;2023-11-19T21:26:58;54682.69;;;-143.77;88.25
13836;BME280;6988;52.614;13.500;2023-11-19T21:31:53;54701.16;;;-143.77;87.77
13836;BME280;6988;52.614;13.500;2023-11-19T21:36:44;54676.53;;;-143.77;87.85
13836;BME280;6988;52.614;13.500;2023-11-19T21:41:36;54660.13;;;-143.77;88.03
13836;BME280;6988;52.614;13.500;2023-11-19T21:46:28;54688.84;;;-143.77;88.25
13836;BME280;6988;52.614;13.500;2023-11-19T21:51:21;54676.53;;;-143.77;88.05
13836;BME280;6988;52.614;13.500;2023-11-19T21:56:14;54701.16;;;-143.77;87.95
13836;BME280;6988;52.614;13.500;2023-11-19T22:01:07;54666.28;;;-143.77;87.98
13836;BME280;6988;52.614;13.500;2023-11-19T22:05:59;54678.59;;;-143.77;87.41
13836;BME280;6988;52.614;13.500;2023-11-19T22:10:53;54672.44;;;-143.77;87.69
13836;BME280;6988;52.614;13.500;2023-11-19T22:15:48;54676.53;;;-143.77;88.13
13836;BME280;6988;52.614;13.500;2023-11-19T22:20:40;54705.28;;;-143.77;87.84
13836;BME280;6988;52.614;13.500;2023-11-19T22:25:32;54664.22;;;-143.77;88.05
13836;BME280;6988;52.614;13.500;2023-11-19T22:30:25;54684.75;;;-143.77;87.69
13836;BME280;6988;52.614;13.500;2023-11-19T22:35:17;54692.97;;;-143.77;87.67
13836;BME280;6988;52.614;13.500;2023-11-19T22:40:11;54676.53;;;-143.77;88.17
13836;BME280;6988;52.614;13.500;2023-11-19T22:45:04;54672.44;;;-143.77;87.90
13836;BME280;6988;52.614;13.500;2023-11-19T23:04:34;54668.34;;;-143.77;89.08
13836;BME280;6988;52.614;13.500;2023-11-19T23:09:26;54656.03;;;-143.77;89.73
13836;BME280;6988;52.614;13.500;2023-11-19T23:14:18;54697.06;;;-143.77;89.78
13836;BME280;6988;52.614;13.500;2023-11-19T23:19:09;54676.53;;;-143.77;89.96
13836;BME280;6988;52.614;13.500;2023-11-19T23:24:04;54688.84;;;-143.77;90.30
13836;BME280;6988;52.614;13.500;2023-11-19T23:28:56;54676.53;;;-143.77;90.21
13836;BME280;6988;52.614;13.500;2023-11-19T23:33:48;54660.13;;;-143.77;90.19
13836;BME280;6988;52.614;13.500;2023-11-19T23:38:40;54688.84;;;-143.77;89.69
13836;BME280;6988;52.614;13.500;2023-11-19T23:43:33;54670.38;;;-143.77;89.37
13836;BME280;6988;52.614;13.500;2023-11-19T23:48:25;54676.53;;;-143.77;89.69
13836;BME280;6988;52.614;13.500;2023-11-19T23:53:19;54688.84;;;-143.77;89.32
13836;BME280;6988;52.614;13.500;2023-11-19T23:58:11;54666.28;;;-143.77;89.52
